Flugplatz Paderborn Lippstadt

Bericht für EDLP

vom 17.08. um 06:20 UTC

variable Windrichtung mit 2 kt

Sichtweite 10 km oder mehr

gute Sicht, keine Wolken < 5000 ft, keine CB, keine Wettererscheinungen (CAVOK)

Temperatur 17.0°C

Taupunkt 13.0°C

Luftfeuchtigkeit 77%

Luftdruck 1017 hPa

EDLP 170620Z VRB02KT CAVOK 17/13 Q1017

Prognose für EDLP

vom 17.08. um 05:00 UTC

Zwischen 06:00 UTC und 17:00 UTC

Wind 5 kt aus 290°

Sichtweite 10 km oder mehr

keine signifikanten Wettererscheinungen

keine Wolken


Zwischen 11:00 UTC und 15:00 UTC zeitweise mit einer Wahrscheinlichkeit von 30%

Sichtweite 4500 m

Regenschauer

aufgebrochene Bewölkung in 1200 ft


Zwischen 17:00 und 20:00 UTC übergehend zu

variable Windrichtung mit 2 kt

Sichtweite 10 km oder mehr

keine signifikanten Wettererscheinungen

keine Wolken

TAF EDLP 170500Z 1706/1806 29005KT CAVOK PROB30 TEMPO 1711/1715 4500 SHRA BKN012TCU BECMG 1717/1720 VRB02KT
Impressum